KPSM/PSM METAR and TAF weather

Enter ICAO airport designator
Station Type Date Time Source
KPSM METAR 2022/05/23 13:56 UTC NOAA

KPSM 231356Z 31010KT 10SM FEW029 SCT039 BKN250 19/08 A3017 RMK AO2A SLP219 T01910078


Station Type Date Time Source
KPSM Decoded METAR 2022/05/23 13:56 UTC NOAA

Pease Air Force Base / Portsmouth, NH, United States (KPSM) 43-05N 070-49W
May 23, 2022 - 09:56 AM EDT / 2022.05.23 1356 UTC
Wind: from the NW (310 degrees) at 12 MPH (10 KT):0
Visibility: 10 mile(s):0
Sky conditions: mostly cloudy
Temperature: 66.4 F (19.1 C)
Dew Point: 46.0 F (7.8 C)
Relative Humidity: 47%
Pressure (altimeter): 30.17 in. Hg (1021 hPa)
ob: KPSM 231356Z 31010KT 10SM FEW029 SCT039 BKN250 19/08 A3017 RMK AO2A SLP219 T01910078
cycle: 14

Station Type Date Time Source
KPSM TAF 2022/05/23 12:22 UTC NOAA

TAF KPSM 231120Z 2312/2412 30007KT P6SM FEW028 SCT060 BKN250
FM231500 34011G17KT P6SM BKN250
FM240000 VRB03KT P6SM OVC250

Example: see airport list